createdAt,value
2018-01-02T00:01:42.467Z,99866.00
2018-01-02T00:04:08.234Z,99866.85
2018-01-02T00:06:33.994Z,99867.77
2018-01-02T00:08:59.755Z,99870.39
2018-01-02T00:11:25.504Z,99866.55
2018-01-02T00:13:51.260Z,99864.86
2018-01-02T00:16:17.066Z,99869.68
2018-01-02T00:18:42.893Z,99872.60
2018-01-02T00:21:09.504Z,99872.58
2018-01-02T00:23:35.252Z,99877.33
2018-01-02T00:26:00.995Z,99883.90
2018-01-02T00:28:26.751Z,99877.90
2018-01-02T00:30:52.507Z,99881.48
2018-01-02T00:33:18.251Z,99879.83
2018-01-02T00:35:44.000Z,99882.50
2018-01-02T00:38:09.873Z,99883.34
2018-01-02T00:40:35.648Z,99887.73
2018-01-02T00:43:01.415Z,99888.66
2018-01-02T00:45:27.193Z,99888.65
2018-01-02T00:47:52.938Z,99893.06
2018-01-02T00:50:18.706Z,99887.03
2018-01-02T00:52:44.499Z,99900.17
2018-01-02T00:55:10.262Z,99901.48
2018-01-02T00:57:36.022Z,99903.22
2018-01-02T01:00:01.804Z,99908.95
2018-01-02T01:02:27.572Z,99905.55
2018-01-02T01:04:53.362Z,99903.39
2018-01-02T01:07:19.110Z,99906.38
2018-01-02T01:09:44.862Z,99901.14
2018-01-02T01:12:10.622Z,99908.10
2018-01-02T01:14:36.383Z,99909.36
2018-01-02T01:17:02.206Z,99915.47
2018-01-02T01:19:27.946Z,99917.63
2018-01-02T01:21:53.714Z,99917.57
2018-01-02T01:24:19.463Z,99916.19
2018-01-02T01:26:45.225Z,99916.70
2018-01-02T01:29:11.056Z,99918.91
2018-01-02T01:31:36.858Z,99922.78
2018-01-02T01:34:02.651Z,99922.38
2018-01-02T01:36:28.422Z,99927.63
2018-01-02T01:38:54.182Z,99931.54
2018-01-02T01:41:20.050Z,99927.13
2018-01-02T01:43:45.848Z,99928.94
2018-01-02T01:46:11.594Z,99934.56
2018-01-02T01:48:49.839Z,99934.16
2018-01-02T01:51:15.623Z,99933.23
2018-01-02T01:53:41.451Z,99929.72
2018-01-02T01:56:07.182Z,99937.58
2018-01-02T01:58:33.051Z,99942.42
2018-01-02T02:00:58.794Z,99941.98
2018-01-02T02:03:24.558Z,99942.00
2018-01-02T02:05:50.315Z,99945.52
2018-01-02T02:08:16.091Z,99944.67
2018-01-02T02:10:42.904Z,99945.11
2018-01-02T02:13:08.682Z,99946.88
2018-01-02T02:15:34.445Z,99948.98
2018-01-02T02:18:00.258Z,99951.62
2018-01-02T02:20:26.062Z,99945.47
2018-01-02T02:22:51.813Z,99949.39
2018-01-02T02:25:17.594Z,99953.77
2018-01-02T02:27:43.343Z,99959.84
2018-01-02T02:30:09.075Z,99955.09
2018-01-02T02:32:34.867Z,99956.02
2018-01-02T02:35:00.692Z,99962.07
2018-01-02T02:37:26.485Z,99969.08
2018-01-02T02:39:52.255Z,99964.62
2018-01-02T02:42:17.995Z,99966.92
2018-01-02T02:44:43.752Z,99971.37
2018-01-02T02:47:09.550Z,99975.20
2018-01-02T02:49:35.341Z,99972.63
2018-01-02T02:52:01.163Z,99977.34
2018-01-02T02:54:26.916Z,99976.55
2018-01-02T02:56:52.680Z,99983.13
2018-01-02T02:59:18.493Z,99977.00
2018-01-02T03:01:44.226Z,99983.98
2018-01-02T03:04:10.004Z,99982.14
2018-01-02T03:06:35.757Z,99976.52
2018-01-02T03:09:01.518Z,99980.10
2018-01-02T03:11:27.278Z,99977.46
2018-01-02T03:13:53.058Z,99980.10
2018-01-02T03:16:18.810Z,99983.56
2018-01-02T03:18:44.572Z,99987.03
2018-01-02T03:21:10.354Z,99990.52
2018-01-02T03:23:36.116Z,99993.59
2018-01-02T03:26:01.890Z,99997.91
2018-01-02T03:28:27.658Z,100002.23
2018-01-02T03:30:53.418Z,100002.25
2018-01-02T03:33:19.179Z,100006.64
2018-01-02T03:35:44.959Z,100007.03
2018-01-02T03:38:10.714Z,100019.68
2018-01-02T03:40:36.500Z,100010.91
2018-01-02T03:43:02.250Z,100017.91
2018-01-02T03:45:28.015Z,100020.56
2018-01-02T03:47:53.771Z,100021.45
2018-01-02T03:50:19.547Z,100014.41
2018-01-02T03:52:45.312Z,100027.95
2018-01-02T03:55:11.079Z,100024.92
2018-01-02T03:57:36.826Z,100023.16
2018-01-02T04:00:02.603Z,100026.66
2018-01-02T04:02:28.382Z,100025.80
2018-01-02T04:04:54.147Z,100032.34
2018-01-02T04:07:19.917Z,100027.53
2018-01-02T04:09:45.754Z,100041.46
2018-01-02T04:12:11.507Z,100043.63
2018-01-02T04:14:37.267Z,100046.25
2018-01-02T04:17:03.047Z,100047.54
2018-01-02T04:19:28.815Z,100051.86
2018-01-02T04:21:54.590Z,100053.24
2018-01-02T04:24:20.346Z,100049.31
2018-01-02T04:26:46.121Z,100057.58
2018-01-02T04:29:11.877Z,100062.79
2018-01-02T04:31:37.643Z,100060.59
2018-01-02T04:34:03.398Z,100065.39
2018-01-02T04:36:29.175Z,100072.33
2018-01-02T04:38:54.918Z,100071.00
2018-01-02T04:41:20.658Z,100070.16
2018-01-02T04:43:46.422Z,100069.27
2018-01-02T04:46:12.195Z,100081.93
2018-01-02T04:48:37.970Z,100080.63
2018-01-02T04:51:03.722Z,100084.98
2018-01-02T04:53:29.490Z,100088.87
2018-01-02T04:55:55.242Z,100083.65
2018-01-02T04:58:21.004Z,100090.17
2018-01-02T05:00:46.860Z,100088.46
2018-01-02T05:03:12.627Z,100093.21
2018-01-02T05:05:38.359Z,100098.03
2018-01-02T05:08:04.860Z,100099.34
2018-01-02T05:10:30.618Z,100101.89
2018-01-02T05:12:56.383Z,100108.41
2018-01-02T05:15:22.126Z,100105.80
2018-01-02T05:17:47.878Z,100104.52
2018-01-02T05:20:13.642Z,100105.83
2018-01-02T05:22:39.395Z,100112.83
2018-01-02T05:25:05.167Z,100115.88
2018-01-02T05:27:30.931Z,100114.58
2018-01-02T05:29:56.711Z,100117.20
2018-01-02T05:32:22.475Z,100121.13
2018-01-02T05:34:48.247Z,100122.02
2018-01-02T05:37:13.989Z,100117.23
2018-01-02T05:39:39.747Z,100122.52
2018-01-02T05:42:05.490Z,100134.32
2018-01-02T05:44:31.242Z,100144.72
2018-01-02T05:46:56.998Z,100140.76
2018-01-02T05:49:22.786Z,100144.70
2018-01-02T05:51:48.543Z,100152.09
2018-01-02T05:54:14.319Z,100158.99
2018-01-02T05:56:40.066Z,100157.25
2018-01-02T05:59:05.879Z,100156.00
2018-01-02T06:01:31.649Z,100162.05
2018-01-02T06:03:57.410Z,100165.98
2018-01-02T06:06:23.182Z,100175.11
2018-01-02T06:08:48.947Z,100170.67
2018-01-02T06:11:14.710Z,100179.85
2018-01-02T06:13:40.478Z,100179.87
2018-01-02T06:16:06.254Z,100185.94
2018-01-02T06:18:32.014Z,100186.80
2018-01-02T06:20:57.794Z,100190.69
2018-01-02T06:23:23.559Z,100187.65
2018-01-02T06:25:49.342Z,100196.35
2018-01-02T06:28:15.102Z,100196.80
2018-01-02T06:30:40.877Z,100197.23
2018-01-02T06:33:06.637Z,100199.03
2018-01-02T06:35:32.414Z,100198.64
2018-01-02T06:37:58.214Z,100200.89
2018-01-02T06:40:23.950Z,100210.88
2018-01-02T06:42:49.720Z,100209.10
2018-01-02T06:45:15.511Z,100204.77
2018-01-02T06:47:41.267Z,100209.16
2018-01-02T06:50:07.038Z,100210.43
2018-01-02T06:52:32.803Z,100215.23
2018-01-02T06:54:58.570Z,100216.53
2018-01-02T06:57:24.338Z,100216.96
2018-01-02T06:59:50.095Z,100223.52
2018-01-02T07:02:15.882Z,100226.95
2018-01-02T07:04:41.629Z,100228.20
2018-01-02T07:07:07.403Z,100229.48
2018-01-02T07:09:33.166Z,100228.55
2018-01-02T07:11:58.942Z,100236.86
2018-01-02T07:14:24.702Z,100232.92
2018-01-02T07:16:50.479Z,100240.73
2018-01-02T07:19:17.018Z,100245.06
2018-01-02T07:21:42.786Z,100253.81
2018-01-02T07:24:08.538Z,100245.53
2018-01-02T07:26:34.302Z,100262.52
2018-01-02T07:29:00.073Z,100267.77
2018-01-02T07:31:25.830Z,100272.94
2018-01-02T07:33:51.610Z,100278.12
2018-01-02T07:36:17.366Z,100279.00
2018-01-02T07:38:43.139Z,100280.73
2018-01-02T07:41:08.895Z,100285.55
2018-01-02T07:43:34.676Z,100283.37
2018-01-02T07:46:00.438Z,100279.89
2018-01-02T07:48:26.214Z,100290.79
2018-01-02T07:50:51.966Z,100292.10
2018-01-02T07:53:17.718Z,100290.80
2018-01-02T07:55:43.474Z,100291.70
2018-01-02T07:58:09.260Z,100299.45
2018-01-02T08:00:35.006Z,100296.79
2018-01-02T08:03:00.766Z,100308.11
2018-01-02T08:05:26.529Z,100308.96
2018-01-02T08:07:52.287Z,100309.02
2018-01-02T08:10:18.045Z,100313.83
2018-01-02T08:12:43.822Z,100308.52
2018-01-02T08:15:09.574Z,100315.92
2018-01-02T08:17:35.324Z,100317.16
2018-01-02T08:20:01.083Z,100319.73
2018-01-02T08:22:26.826Z,100330.17
2018-01-02T08:24:52.586Z,100333.17
2018-01-02T08:27:18.352Z,100342.27
2018-01-02T08:29:44.113Z,100346.14
2018-01-02T08:32:09.863Z,100346.98
2018-01-02T08:34:35.632Z,100345.63
2018-01-02T08:37:01.394Z,100353.03
2018-01-02T08:39:27.163Z,100358.55
2018-01-02T08:41:52.911Z,100355.48
2018-01-02T08:44:18.662Z,100358.84
2018-01-02T08:46:44.407Z,100370.20
2018-01-02T08:49:10.191Z,100369.69
2018-01-02T08:51:35.959Z,100382.72
2018-01-02T08:54:01.747Z,100378.26
2018-01-02T08:56:27.503Z,100387.03
2018-01-02T08:58:53.265Z,100388.80
2018-01-02T09:01:19.033Z,100386.69
2018-01-02T09:03:44.802Z,100393.58
2018-01-02T09:06:10.562Z,100396.98
2018-01-02T09:08:36.323Z,100405.72
2018-01-02T09:11:03.268Z,100400.41
2018-01-02T09:13:35.232Z,100404.23
2018-01-02T09:16:00.998Z,100415.61
2018-01-02T09:18:26.767Z,100410.28
2018-01-02T09:20:52.543Z,100415.52
2018-01-02T09:23:19.616Z,100429.02
2018-01-02T09:25:46.491Z,100424.63
2018-01-02T09:28:13.643Z,100423.77
2018-01-02T09:30:40.984Z,100427.20
2018-01-02T09:33:06.795Z,100430.74
2018-01-02T09:35:32.558Z,100432.81
2018-01-02T09:37:58.350Z,100439.36
2018-01-02T09:40:24.127Z,100436.22
2018-01-02T09:42:49.879Z,100442.86
2018-01-02T09:45:15.629Z,100449.00
2018-01-02T09:47:41.398Z,100445.55
2018-01-02T09:50:07.166Z,100448.00
2018-01-02T09:52:32.954Z,100451.48
2018-01-02T09:54:58.726Z,100452.74
2018-01-02T09:57:24.508Z,100457.50
2018-01-02T09:59:50.326Z,100464.58
2018-01-02T10:02:16.107Z,100477.33
2018-01-02T10:04:41.878Z,100470.32
2018-01-02T10:07:07.648Z,100470.76
2018-01-02T10:09:33.429Z,100474.23
2018-01-02T10:12:00.942Z,100470.23
2018-01-02T10:14:28.099Z,100474.17
2018-01-02T10:16:54.682Z,100469.38
2018-01-02T10:19:20.440Z,100472.46
2018-01-02T10:21:46.215Z,100472.30
2018-01-02T10:24:11.983Z,100471.40
2018-01-02T10:26:37.772Z,100478.41
2018-01-02T10:29:03.528Z,100482.86
2018-01-02T10:31:29.294Z,100489.13
2018-01-02T10:33:55.060Z,100487.83
2018-01-02T10:36:20.836Z,100490.38
2018-01-02T10:38:46.615Z,100495.00
2018-01-02T10:41:12.370Z,100483.45
2018-01-02T10:43:38.134Z,100492.56
2018-01-02T10:46:03.887Z,100489.50
2018-01-02T10:48:29.649Z,100484.55
2018-01-02T10:50:55.420Z,100488.52
2018-01-02T10:53:21.181Z,100483.02
2018-01-02T10:55:46.932Z,100481.81
2018-01-02T10:58:12.702Z,100479.18
2018-01-02T11:00:44.635Z,100492.00
2018-01-02T11:03:10.403Z,100492.67
2018-01-02T11:05:36.162Z,100494.66
2018-01-02T11:08:01.919Z,100506.75
2018-01-02T11:10:27.703Z,100504.16
2018-01-02T11:12:53.471Z,100511.64
2018-01-02T11:15:19.253Z,100503.53
2018-01-02T11:17:45.009Z,100500.98
2018-01-02T11:20:10.766Z,100502.39
2018-01-02T11:22:36.510Z,100503.34
2018-01-02T11:25:02.294Z,100500.77
2018-01-02T11:27:28.057Z,100508.27
2018-01-02T11:29:53.821Z,100512.67
2018-01-02T11:32:19.579Z,100513.09
2018-01-02T11:34:45.353Z,100513.56
2018-01-02T11:37:11.107Z,100517.47
2018-01-02T11:39:36.878Z,100515.75
2018-01-02T11:42:02.639Z,100522.77
2018-01-02T11:44:28.398Z,100521.52
2018-01-02T11:46:54.251Z,100519.36
2018-01-02T11:49:20.021Z,100521.11
2018-01-02T11:51:45.790Z,100520.66
2018-01-02T11:54:11.580Z,100518.85
2018-01-02T11:56:37.314Z,100524.97
2018-01-02T11:59:03.083Z,100534.58
2018-01-02T12:01:28.869Z,100529.67
2018-01-02T12:03:54.628Z,100530.92
2018-01-02T12:06:20.399Z,100541.45
2018-01-02T12:08:46.158Z,100543.53
2018-01-02T12:11:11.935Z,100539.92
2018-01-02T12:13:37.689Z,100539.08
2018-01-02T12:16:03.446Z,100539.47
2018-01-02T12:18:29.204Z,100543.83
2018-01-02T12:20:54.970Z,100551.40
2018-01-02T12:23:20.731Z,100554.92
2018-01-02T12:25:46.525Z,100559.72
2018-01-02T12:28:12.302Z,100564.93
2018-01-02T12:30:38.067Z,100568.86
2018-01-02T12:33:03.841Z,100566.61
2018-01-02T12:35:29.594Z,100566.13
2018-01-02T12:37:55.357Z,100566.59
2018-01-02T12:40:21.115Z,100570.58
2018-01-02T12:42:46.901Z,100567.13
2018-01-02T12:45:12.804Z,100558.80
2018-01-02T12:47:38.730Z,100571.89
2018-01-02T12:50:04.556Z,100567.03
2018-01-02T12:52:30.389Z,100564.45
2018-01-02T12:54:56.330Z,100564.87
2018-01-02T12:57:22.107Z,100563.16
2018-01-02T12:59:47.870Z,100563.62
2018-01-02T13:02:13.659Z,100560.49
2018-01-02T13:04:39.415Z,100562.66
2018-01-02T13:07:05.669Z,100561.39
2018-01-02T13:09:31.422Z,100560.48
2018-01-02T13:11:57.204Z,100562.25
2018-01-02T13:14:23.103Z,100571.52
2018-01-02T13:16:48.848Z,100571.20
2018-01-02T13:19:14.615Z,100562.98
2018-01-02T13:21:40.374Z,100552.88
2018-01-02T13:24:06.182Z,100559.86
2018-01-02T13:26:31.935Z,100558.63
2018-01-02T13:28:57.691Z,100571.73
2018-01-02T13:31:23.446Z,100561.25
2018-01-02T13:33:49.210Z,100564.73
2018-01-02T13:36:14.970Z,100567.28
2018-01-02T13:38:40.750Z,100564.61
2018-01-02T13:41:06.572Z,100561.66
2018-01-02T13:43:32.431Z,100566.63
2018-01-02T13:45:58.209Z,100560.91
2018-01-02T13:48:23.987Z,100565.31
2018-01-02T13:50:49.761Z,100568.43
2018-01-02T13:53:15.517Z,100561.87
2018-01-02T13:55:41.284Z,100565.42
2018-01-02T13:58:07.055Z,100556.21
2018-01-02T14:00:32.851Z,100561.00
2018-01-02T14:02:58.614Z,100563.59
2018-01-02T14:05:24.378Z,100561.77
2018-01-02T14:07:50.160Z,100563.95
2018-01-02T14:10:15.971Z,100568.31
2018-01-02T14:12:41.738Z,100565.72
2018-01-02T14:15:07.505Z,100565.74
2018-01-02T14:17:33.270Z,100564.02
2018-01-02T14:19:59.039Z,100568.43
2018-01-02T14:22:24.807Z,100565.31
2018-01-02T14:24:50.611Z,100568.44
2018-01-02T14:27:16.353Z,100565.42
2018-01-02T14:29:42.106Z,100570.70
2018-01-02T14:32:07.858Z,100576.03
2018-01-02T14:34:33.662Z,100574.74
2018-01-02T14:36:59.423Z,100570.02
2018-01-02T14:39:25.194Z,100577.92
2018-01-02T14:41:51.014Z,100581.84
2018-01-02T14:44:16.787Z,100585.74
2018-01-02T14:46:42.542Z,100583.13
2018-01-02T14:49:08.306Z,100575.23
2018-01-02T14:51:34.062Z,100576.91
2018-01-02T14:53:59.877Z,100570.38
2018-01-02T14:56:25.611Z,100586.52
2018-01-02T14:58:51.371Z,100583.48
2018-01-02T15:01:17.131Z,100588.75
2018-01-02T15:03:42.890Z,100580.48
2018-01-02T15:06:08.720Z,100580.50
2018-01-02T15:08:34.504Z,100573.90
2018-01-02T15:11:00.308Z,100586.56
2018-01-02T15:13:26.055Z,100592.69
2018-01-02T15:15:51.889Z,100591.80
2018-01-02T15:18:17.654Z,100593.09
2018-01-02T15:20:43.479Z,100597.94
2018-01-02T15:23:09.221Z,100601.84
2018-01-02T15:25:34.974Z,100603.98
2018-01-02T15:28:00.732Z,100608.86
2018-01-02T15:30:26.518Z,100600.08
2018-01-02T15:32:52.320Z,100592.69
2018-01-02T15:35:18.064Z,100605.34
2018-01-02T15:37:43.821Z,100601.82
2018-01-02T15:40:09.618Z,100599.48
2018-01-02T15:42:35.353Z,100595.09
2018-01-02T15:45:01.132Z,100596.87
2018-01-02T15:47:27.770Z,100594.61
2018-01-02T15:49:53.619Z,100593.39
2018-01-02T15:52:19.390Z,100588.51
2018-01-02T15:54:45.158Z,100588.59
2018-01-02T15:57:10.947Z,100595.25
2018-01-02T15:59:36.700Z,100602.63
2018-01-02T16:02:02.460Z,100597.38
2018-01-02T16:04:28.218Z,100597.27
2018-01-02T16:06:54.062Z,100598.20
2018-01-02T16:09:19.818Z,100596.49
2018-01-02T16:11:45.570Z,100598.34
2018-01-02T16:14:11.323Z,100602.25
2018-01-02T16:16:37.096Z,100597.40
2018-01-02T16:19:02.856Z,100592.31
2018-01-02T16:21:35.726Z,100596.72
2018-01-02T16:24:01.552Z,100595.52
2018-01-02T16:26:27.339Z,100602.52
2018-01-02T16:28:53.122Z,100613.05
2018-01-02T16:31:18.907Z,100609.54
2018-01-02T16:33:44.648Z,100618.75
2018-01-02T16:36:10.410Z,100621.28
2018-01-02T16:38:36.186Z,100622.12
2018-01-02T16:41:01.975Z,100625.14
2018-01-02T16:43:27.763Z,100622.06
2018-01-02T16:45:53.522Z,100618.54
2018-01-02T16:48:19.305Z,100618.52
2018-01-02T16:50:45.126Z,100619.40
2018-01-02T16:53:10.886Z,100613.17
2018-01-02T16:55:36.679Z,100615.04
2018-01-02T16:58:02.456Z,100607.15
2018-01-02T17:00:28.249Z,100605.02
2018-01-02T17:02:54.028Z,100607.63
2018-01-02T17:05:19.805Z,100608.98
2018-01-02T17:07:45.624Z,100612.94
2018-01-02T17:10:11.411Z,100606.31
2018-01-02T17:12:37.219Z,100603.32
2018-01-02T17:15:03.027Z,100600.64
2018-01-02T17:17:28.861Z,100599.80
2018-01-02T17:19:54.637Z,100600.25
2018-01-02T17:22:20.446Z,100599.83
2018-01-02T17:24:46.223Z,100592.80
2018-01-02T17:27:11.984Z,100595.05
2018-01-02T17:29:37.744Z,100585.91
2018-01-02T17:32:04.279Z,100586.33
2018-01-02T17:34:30.023Z,100588.08
2018-01-02T17:36:55.787Z,100582.88
2018-01-02T17:39:21.551Z,100585.98
2018-01-02T17:41:47.317Z,100575.52
2018-01-02T17:44:13.068Z,100563.25
2018-01-02T17:46:38.823Z,100563.30
2018-01-02T17:49:04.599Z,100564.62
2018-01-02T17:51:30.342Z,100553.34
2018-01-02T17:53:56.130Z,100558.16
2018-01-02T17:56:21.891Z,100554.70
2018-01-02T17:58:47.676Z,100546.41
2018-01-02T18:01:13.454Z,100538.98
2018-01-02T18:03:39.209Z,100538.95
2018-01-02T18:06:04.960Z,100535.86
2018-01-02T18:08:30.759Z,100530.17
2018-01-02T18:10:56.538Z,100524.87
2018-01-02T18:13:22.297Z,100524.02
2018-01-02T18:15:48.070Z,100526.58
2018-01-02T18:18:13.831Z,100527.02
2018-01-02T18:20:39.623Z,100523.96
2018-01-02T18:23:05.387Z,100520.50
2018-01-02T18:25:31.154Z,100515.69
2018-01-02T18:27:56.924Z,100513.88
2018-01-02T18:30:22.704Z,100512.06
2018-01-02T18:32:48.475Z,100504.70
2018-01-02T18:35:14.262Z,100492.90
2018-01-02T18:37:40.014Z,100489.41
2018-01-02T18:40:05.786Z,100487.17
2018-01-02T18:42:31.571Z,100477.14
2018-01-02T18:44:57.330Z,100475.80
2018-01-02T18:47:23.092Z,100471.92
2018-01-02T18:49:48.891Z,100474.99
2018-01-02T18:52:14.674Z,100466.31
2018-01-02T18:54:40.438Z,100467.59
2018-01-02T18:57:06.202Z,100459.74
2018-01-02T18:59:31.967Z,100462.78
2018-01-02T19:01:57.739Z,100472.44
2018-01-02T19:04:23.530Z,100461.94
2018-01-02T19:06:49.286Z,100464.98
2018-01-02T19:09:15.038Z,100475.91
2018-01-02T19:11:40.811Z,100471.58
2018-01-02T19:14:06.581Z,100477.70
2018-01-02T19:16:32.322Z,100476.79
2018-01-02T19:18:58.067Z,100472.88
2018-01-02T19:21:23.828Z,100479.05
2018-01-02T19:23:49.563Z,100472.50
2018-01-02T19:26:15.322Z,100468.09
2018-01-02T19:28:41.079Z,100469.89
2018-01-02T19:31:06.929Z,100465.88
2018-01-02T19:33:32.720Z,100455.01
2018-01-02T19:35:58.504Z,100454.55
2018-01-02T19:38:24.267Z,100436.61
2018-01-02T19:40:50.028Z,100436.19
2018-01-02T19:43:15.782Z,100439.29
2018-01-02T19:45:41.551Z,100436.79
2018-01-02T19:48:07.290Z,100443.70
2018-01-02T19:50:33.075Z,100439.73
2018-01-02T19:52:58.839Z,100430.95
2018-01-02T19:55:24.586Z,100423.58
2018-01-02T19:57:50.342Z,100413.13
2018-01-02T20:00:16.105Z,100413.59
2018-01-02T20:02:48.802Z,100407.91
2018-01-02T20:05:14.548Z,100399.17
2018-01-02T20:07:40.342Z,100390.41
2018-01-02T20:10:06.135Z,100393.97
2018-01-02T20:12:31.882Z,100385.70
2018-01-02T20:14:57.634Z,100386.58
2018-01-02T20:17:23.389Z,100394.94
2018-01-02T20:19:49.139Z,100388.41
2018-01-02T20:22:14.903Z,100378.39
2018-01-02T20:24:40.663Z,100361.38
2018-01-02T20:27:06.425Z,100360.53
2018-01-02T20:29:32.182Z,100356.56
2018-01-02T20:31:57.955Z,100338.21
2018-01-02T20:34:23.698Z,100339.55
2018-01-02T20:36:49.487Z,100331.74
2018-01-02T20:39:15.248Z,100328.78
2018-01-02T20:41:41.016Z,100329.21
2018-01-02T20:44:06.766Z,100319.22
2018-01-02T20:46:32.508Z,100322.27
2018-01-02T20:48:58.300Z,100319.65
2018-01-02T20:51:24.036Z,100313.48
2018-01-02T20:53:49.795Z,100307.46
2018-01-02T20:56:15.544Z,100301.66
2018-01-02T20:58:41.320Z,100300.88
2018-01-02T21:01:07.079Z,100296.50
2018-01-02T21:03:32.843Z,100289.94
2018-01-02T21:05:58.601Z,100292.08
2018-01-02T21:08:24.375Z,100298.17
2018-01-02T21:10:50.132Z,100283.80
2018-01-02T21:13:15.916Z,100275.94
2018-01-02T21:15:41.666Z,100267.64
2018-01-02T21:18:07.425Z,100255.45
2018-01-02T21:20:33.187Z,100243.75
2018-01-02T21:22:58.934Z,100234.13
2018-01-02T21:25:24.684Z,100224.56
2018-01-02T21:27:50.455Z,100214.95
2018-01-02T21:30:16.205Z,100219.80
2018-01-02T21:32:41.947Z,100205.33
2018-01-02T21:35:07.690Z,100197.48
2018-01-02T21:37:33.455Z,100191.04
2018-01-02T21:39:59.218Z,100180.58
2018-01-02T21:42:24.993Z,100171.39
2018-01-02T21:44:50.760Z,100170.97
2018-01-02T21:47:16.518Z,100165.33
2018-01-02T21:49:42.302Z,100166.15
2018-01-02T21:52:08.058Z,100160.04
2018-01-02T21:54:33.838Z,100153.48
2018-01-02T21:56:59.602Z,100148.28
2018-01-02T21:59:25.366Z,100140.77
2018-01-02T22:01:51.132Z,100120.66
2018-01-02T22:04:16.895Z,100116.29
2018-01-02T22:06:42.651Z,100103.20
2018-01-02T22:09:08.427Z,100097.02
2018-01-02T22:11:34.187Z,100083.91
2018-01-02T22:13:59.979Z,100081.29
2018-01-02T22:16:25.730Z,100076.91
2018-01-02T22:18:51.479Z,100065.16
2018-01-02T22:21:17.239Z,100057.69
2018-01-02T22:23:42.998Z,100053.31
2018-01-02T22:26:08.775Z,100051.06
2018-01-02T22:28:34.522Z,100035.73
2018-01-02T22:31:00.286Z,100032.28
2018-01-02T22:33:26.050Z,100022.68
2018-01-02T22:35:51.805Z,100016.00
2018-01-02T22:38:17.570Z,100017.75
2018-01-02T22:40:43.335Z,100011.25
2018-01-02T22:43:09.102Z,100000.28
2018-01-02T22:45:34.878Z,99988.02
2018-01-02T22:48:00.634Z,99977.19
2018-01-02T22:50:26.386Z,99967.19
2018-01-02T22:52:52.129Z,99960.17
2018-01-02T22:55:17.877Z,99952.31
2018-01-02T22:57:43.639Z,99947.13
2018-01-02T23:00:09.400Z,99933.53
2018-01-02T23:02:35.145Z,99929.20
2018-01-02T23:05:00.918Z,99918.34
2018-01-02T23:07:26.702Z,99911.38
2018-01-02T23:09:52.451Z,99898.73
2018-01-02T23:12:18.227Z,99884.77
2018-01-02T23:14:43.966Z,99874.72
2018-01-02T23:17:09.731Z,99858.59
2018-01-02T23:19:35.482Z,99856.00
2018-01-02T23:22:01.223Z,99847.36
2018-01-02T23:24:26.957Z,99833.42
2018-01-02T23:26:52.754Z,99829.02
2018-01-02T23:29:18.499Z,99811.18
2018-01-02T23:31:44.269Z,99805.44
2018-01-02T23:34:10.048Z,99796.73
2018-01-02T23:36:35.819Z,99785.86
2018-01-02T23:39:01.579Z,99779.66
2018-01-02T23:41:27.364Z,99764.81
2018-01-02T23:43:53.146Z,99750.84
2018-01-02T23:46:18.894Z,99742.95
2018-01-02T23:48:44.635Z,99730.69
2018-01-02T23:51:10.394Z,99722.80
2018-01-02T23:53:36.162Z,99706.64
2018-01-02T23:56:01.914Z,99701.00
2018-01-02T23:58:27.683Z,99687.03
